Terminal Aerodrome Forecast
Issued by NWS Sioux Falls, SD

Home | Current Version | Previous Version | Text Only | Print | Product List | Glossary On
Versions: 1 2 3 4 5 6 7 8 9 10 11 12 13 14 15 16 17 18 19
000
FTUS43 KFSD 011311 AAA
TAFHON
TAF AMD
KHON 011311Z 0113/0212 20006KT 3SM BR OVC005
     FM011500 24006KT P6SM SCT015 BKN120
     FM011800 28010KT P6SM SCT120
     FM020000 32005KT P6SM SCT100
     FM020800 36006KT P6SM BKN100=

USA.gov is the U.S. government's official web portal to all federal, state and local government web resources and services.